createdAt,value
2022-09-11T08:30:46.501Z,100193.94
2022-09-11T08:32:49.832Z,100193.94
2022-09-11T08:34:52.409Z,100206.75
2022-09-11T08:36:56.163Z,100191.34
2022-09-11T08:39:00.577Z,100198.22
2022-09-11T08:41:42.556Z,100191.81
2022-09-11T08:43:50.959Z,100196.91
2022-09-11T08:46:04.854Z,100190.53
2022-09-11T08:48:09.320Z,100187.13
2022-09-11T08:50:28.613Z,100186.37
2022-09-11T08:52:33.291Z,100188.84
2022-09-11T08:54:39.211Z,100189.16
2022-09-11T08:56:43.262Z,100188.56
2022-09-11T08:59:04.253Z,100194.25
2022-09-11T09:01:10.704Z,100196.03
2022-09-11T09:03:50.257Z,100187.84
2022-09-11T09:05:56.178Z,100197.44
2022-09-11T09:08:37.371Z,100190.34
2022-09-11T09:10:47.410Z,100190.81
2022-09-11T09:12:56.926Z,100201.34
2022-09-11T09:15:29.271Z,100193.22
2022-09-11T09:17:39.004Z,100207.03
2022-09-11T09:20:02.845Z,100207.75
2022-09-11T09:22:35.952Z,100198.59
2022-09-11T09:25:00.371Z,100212.91
2022-09-11T09:27:06.264Z,100202.66
2022-09-11T09:29:20.093Z,100201.16
2022-09-11T09:31:27.489Z,100199.47
2022-09-11T09:33:35.462Z,100209.13
2022-09-11T09:35:43.459Z,100211.41
2022-09-11T09:37:46.571Z,100214.72
2022-09-11T09:39:50.065Z,100210.13
2022-09-11T09:42:05.266Z,100213.69
2022-09-11T09:44:46.493Z,100200.38
2022-09-11T09:46:52.238Z,100208.22
2022-09-11T09:48:56.014Z,100215.19
2022-09-11T09:50:58.354Z,100206.25
2022-09-11T09:53:10.630Z,100214.38
2022-09-11T09:55:20.503Z,100201.62
2022-09-11T09:57:25.729Z,100198.03
2022-09-11T09:59:39.901Z,100196.53
2022-09-11T10:01:52.662Z,100191.75
2022-09-11T10:04:33.143Z,100189.78
2022-09-11T10:06:35.500Z,100188.84
2022-09-11T10:08:38.464Z,100184.31
2022-09-11T10:10:41.255Z,100185.38
2022-09-11T10:12:45.759Z,100179.47
2022-09-11T10:14:55.196Z,100175.69
2022-09-11T10:16:58.436Z,100191.19
2022-09-11T10:19:00.836Z,100177.03
2022-09-11T10:21:12.338Z,100169.81
2022-09-11T10:23:24.261Z,100168.84
2022-09-11T10:25:30.071Z,100166.81
2022-09-11T10:27:39.048Z,100163.81
2022-09-11T10:29:50.845Z,100165.72
2022-09-11T10:31:55.718Z,100152.41
2022-09-11T10:34:00.271Z,100144.16
2022-09-11T10:36:08.042Z,100145.28
2022-09-11T10:38:18.314Z,100148.41
2022-09-11T10:40:23.272Z,100151.34
2022-09-11T10:42:27.820Z,100161.38
2022-09-11T10:44:30.812Z,100155.87
2022-09-11T10:46:39.063Z,100164.47
2022-09-11T10:48:43.052Z,100172.34
2022-09-11T10:50:45.523Z,100163.53
2022-09-11T10:53:20.136Z,100169.47
2022-09-11T10:55:24.064Z,100164.50
2022-09-11T10:57:38.203Z,100164.97
2022-09-11T11:00:10.253Z,100168.72
2022-09-11T11:02:41.039Z,100171.59
2022-09-11T11:04:43.553Z,100173.19
2022-09-11T11:06:57.379Z,100181.69
2022-09-11T11:09:15.270Z,100165.75
2022-09-11T11:11:35.931Z,100168.44
2022-09-11T11:14:05.964Z,100154.03
2022-09-11T11:16:12.109Z,100155.56
2022-09-11T11:18:47.575Z,100148.22
2022-09-11T11:21:24.223Z,100140.62
2022-09-11T11:23:48.801Z,100136.78
2022-09-11T11:25:55.637Z,100133.25
2022-09-11T11:28:21.664Z,100137.19
2022-09-11T11:30:34.031Z,100139.91
2022-09-11T11:32:47.333Z,100148.72
2022-09-11T11:35:02.340Z,100141.94
2022-09-11T11:37:31.338Z,100132.25
2022-09-11T11:39:52.105Z,100141.28
2022-09-11T11:42:07.125Z,100136.41
2022-09-11T11:44:16.054Z,100147.16
2022-09-11T11:46:27.695Z,100149.97
2022-09-11T11:48:39.945Z,100148.59
2022-09-11T11:50:49.326Z,100132.56
2022-09-11T11:53:41.502Z,100132.09
2022-09-11T11:56:00.659Z,100140.25
2022-09-11T11:58:04.598Z,100131.34
2022-09-11T12:00:13.684Z,100134.63
2022-09-11T12:02:56.652Z,100129.38
2022-09-11T12:05:10.586Z,100127.91
2022-09-11T12:07:33.437Z,100126.50
2022-09-11T12:09:36.365Z,100130.03
2022-09-11T12:11:39.890Z,100128.66
2022-09-11T12:13:47.272Z,100127.34
2022-09-11T12:16:02.842Z,100126.09
2022-09-11T12:18:26.249Z,100126.25
2022-09-11T12:20:43.350Z,100128.59
2022-09-11T12:22:48.822Z,100127.94
2022-09-11T12:24:59.180Z,100128.78
2022-09-11T12:27:36.479Z,100123.28
2022-09-11T12:29:55.270Z,100138.91
2022-09-11T12:32:00.816Z,100138.28
2022-09-11T12:34:03.291Z,100141.87
2022-09-11T12:36:09.273Z,100153.66
2022-09-11T12:38:22.401Z,100152.63
2022-09-11T12:40:32.266Z,100156.50
2022-09-11T12:42:34.502Z,100150.13
2022-09-11T12:44:46.308Z,100142.44
2022-09-11T12:46:48.686Z,100138.13
2022-09-11T12:49:23.268Z,100129.41
2022-09-11T12:51:33.785Z,100137.00
2022-09-11T12:53:38.275Z,100141.19
2022-09-11T12:56:03.208Z,100139.25
2022-09-11T12:58:31.406Z,100134.94
2022-09-11T13:00:42.014Z,100144.00
2022-09-11T13:02:51.235Z,100142.22
2022-09-11T13:04:55.328Z,100137.69
2022-09-11T13:07:05.455Z,100126.56
2022-09-11T13:09:16.590Z,100130.56
2022-09-11T13:11:44.463Z,100128.53
2022-09-11T13:13:48.040Z,100127.38
2022-09-11T13:15:52.484Z,100118.28
2022-09-11T13:17:55.175Z,100127.22
2022-09-11T13:20:21.934Z,100121.91
2022-09-11T13:22:27.740Z,100112.03
2022-09-11T13:24:33.336Z,100112.28
2022-09-11T13:26:35.674Z,100104.22
2022-09-11T13:28:46.090Z,100092.03
2022-09-11T13:31:00.541Z,100095.56
2022-09-11T13:33:08.449Z,100093.75
2022-09-11T13:35:17.106Z,100093.69
2022-09-11T13:37:42.775Z,100084.97
2022-09-11T13:39:47.239Z,100083.28
2022-09-11T13:41:54.622Z,100082.06
2022-09-11T13:44:00.027Z,100081.37
2022-09-11T13:46:17.321Z,100083.88
2022-09-11T13:48:21.568Z,100085.19
2022-09-11T13:50:24.459Z,100078.94
2022-09-11T13:52:30.826Z,100079.75
2022-09-11T13:55:00.654Z,100084.75
2022-09-11T13:57:03.134Z,100081.97
2022-09-11T13:59:24.918Z,100083.94
2022-09-11T14:01:27.234Z,100087.66
2022-09-11T14:03:32.579Z,100078.66
2022-09-11T14:05:36.508Z,100074.66
2022-09-11T14:08:24.841Z,100083.16
2022-09-11T14:10:42.934Z,100069.66
2022-09-11T14:13:23.252Z,100066.97
2022-09-11T14:15:37.942Z,100072.19
2022-09-11T14:17:42.203Z,100065.31
2022-09-11T14:19:46.443Z,100062.47
2022-09-11T14:21:50.651Z,100065.81
2022-09-11T14:23:57.346Z,100062.22
2022-09-11T14:26:18.107Z,100062.59
2022-09-11T14:28:45.846Z,100075.59
2022-09-11T14:31:06.536Z,100077.59
2022-09-11T14:33:26.738Z,100075.91
2022-09-11T14:35:32.127Z,100071.06
2022-09-11T14:37:49.900Z,100072.44
2022-09-11T14:39:56.309Z,100055.19
2022-09-11T14:41:59.583Z,100063.53
2022-09-11T14:44:02.482Z,100050.34
2022-09-11T14:46:04.913Z,100061.06
2022-09-11T14:48:14.387Z,100061.03
2022-09-11T14:50:17.046Z,100050.66
2022-09-11T14:52:21.727Z,100050.66
2022-09-11T14:54:24.782Z,100061.47
2022-09-11T14:56:27.669Z,100067.28
2022-09-11T14:58:30.583Z,100070.72
2022-09-11T15:00:34.066Z,100066.12
2022-09-11T15:02:36.635Z,100065.31
2022-09-11T15:04:39.154Z,100064.81
2022-09-11T15:06:41.544Z,100067.84
2022-09-11T15:08:45.963Z,100065.16
2022-09-11T15:10:49.254Z,100066.84
2022-09-11T15:12:51.524Z,100065.19
2022-09-11T15:14:58.392Z,100070.69
2022-09-11T15:17:03.250Z,100068.00
2022-09-11T15:19:05.583Z,100062.03
2022-09-11T15:21:08.554Z,100068.81
2022-09-11T15:23:10.829Z,100077.31
2022-09-11T15:25:13.546Z,100075.66
2022-09-11T15:27:16.229Z,100070.66
2022-09-11T15:29:19.067Z,100075.97
2022-09-11T15:31:21.608Z,100069.62
2022-09-11T15:33:25.265Z,100073.97
2022-09-11T15:35:32.110Z,100073.16
2022-09-11T15:37:35.317Z,100078.22
2022-09-11T15:39:37.851Z,100076.53
2022-09-11T15:41:40.519Z,100080.50
2022-09-11T15:43:44.918Z,100071.56
2022-09-11T15:45:47.592Z,100084.22
2022-09-11T15:47:49.865Z,100080.75
2022-09-11T15:49:52.117Z,100074.03
2022-09-11T15:51:55.507Z,100076.34
2022-09-11T15:54:00.705Z,100075.59
2022-09-11T15:56:06.261Z,100071.94
2022-09-11T15:58:08.783Z,100062.16
2022-09-11T16:00:12.424Z,100061.47
2022-09-11T16:02:14.978Z,100060.47
2022-09-11T16:04:21.306Z,100050.81
2022-09-11T16:06:25.877Z,100056.44
2022-09-11T16:08:28.290Z,100057.22
2022-09-11T16:10:31.157Z,100061.75
2022-09-11T16:12:34.743Z,100058.41
2022-09-11T16:14:37.817Z,100063.06
2022-09-11T16:16:40.334Z,100067.00
2022-09-11T16:18:42.912Z,100065.72
2022-09-11T16:20:55.112Z,100079.78
2022-09-11T16:22:58.185Z,100076.28
2022-09-11T16:25:00.573Z,100081.63
2022-09-11T16:27:05.945Z,100085.78
2022-09-11T16:29:09.779Z,100074.94
2022-09-11T16:31:12.176Z,100085.88
2022-09-11T16:33:14.528Z,100091.25
2022-09-11T16:35:19.107Z,100096.56
2022-09-11T16:37:21.479Z,100100.16
2022-09-11T16:39:23.889Z,100092.25
2022-09-11T16:41:26.752Z,100103.22
2022-09-11T16:43:31.553Z,100100.91
2022-09-11T16:45:34.822Z,100110.94
2022-09-11T16:47:37.511Z,100098.41
2022-09-11T16:50:03.240Z,100099.81
2022-09-11T16:52:04.056Z,100100.34
2022-09-11T16:54:07.770Z,100105.09
2022-09-11T16:56:14.512Z,100098.59
2022-09-11T16:58:16.829Z,100096.91
2022-09-11T17:00:19.429Z,100095.19
2022-09-11T17:02:21.667Z,100090.94
2022-09-11T17:04:24.653Z,100086.81
2022-09-11T17:06:30.947Z,100095.59
2022-09-11T17:08:34.569Z,100095.81
2022-09-11T17:10:36.865Z,100100.19
2022-09-11T17:12:39.436Z,100106.03
2022-09-11T17:14:41.760Z,100098.63
2022-09-11T17:16:43.988Z,100096.88
2022-09-11T17:18:54.316Z,100095.91
2022-09-11T17:20:58.906Z,100105.94
2022-09-11T17:23:01.170Z,100102.19
2022-09-11T17:25:05.563Z,100113.47
2022-09-11T17:27:08.103Z,100108.84
2022-09-11T17:29:10.491Z,100111.22
2022-09-11T17:31:14.845Z,100102.09
2022-09-11T17:33:17.357Z,100114.09
2022-09-11T17:35:20.347Z,100112.84
2022-09-11T17:37:23.314Z,100108.56
2022-09-11T17:39:26.103Z,100116.56
2022-09-11T17:41:29.319Z,100114.66
2022-09-11T17:43:33.596Z,100117.25
2022-09-11T17:45:36.263Z,100122.50
2022-09-11T17:47:40.943Z,100125.72
2022-09-11T17:49:43.789Z,100120.19
2022-09-11T17:51:46.121Z,100120.59
2022-09-11T17:53:51.352Z,100122.91
2022-09-11T17:56:01.421Z,100119.31
2022-09-11T17:58:03.736Z,100132.91
2022-09-11T18:00:07.682Z,100138.91
2022-09-11T18:02:14.512Z,100132.00
2022-09-11T18:04:18.591Z,100138.59
2022-09-11T18:06:34.772Z,100147.59
2022-09-11T18:08:37.533Z,100147.66
2022-09-11T18:10:40.402Z,100144.34
2022-09-11T18:12:42.759Z,100147.16
2022-09-11T18:14:45.700Z,100156.91
2022-09-11T18:16:48.627Z,100151.84
2022-09-11T18:18:51.173Z,100154.72
2022-09-11T18:20:55.519Z,100155.09
2022-09-11T18:22:59.720Z,100155.59
2022-09-11T18:25:02.393Z,100158.81
2022-09-11T18:27:05.411Z,100152.34
2022-09-11T18:29:11.416Z,100159.31
2022-09-11T18:31:14.447Z,100158.78
2022-09-11T18:33:17.305Z,100153.44
2022-09-11T18:35:20.284Z,100152.94
2022-09-11T18:37:22.873Z,100151.94
2022-09-11T18:39:25.563Z,100152.13
2022-09-11T18:41:30.567Z,100154.22
2022-09-11T18:43:33.185Z,100152.34
2022-09-11T18:45:36.762Z,100154.47
2022-09-11T18:47:40.170Z,100157.09
2022-09-11T18:49:42.817Z,100153.63
2022-09-11T18:51:45.462Z,100157.78
2022-09-11T18:53:52.174Z,100155.44
2022-09-11T18:56:02.220Z,100147.62
2022-09-11T18:58:06.026Z,100160.47
2022-09-11T19:00:13.767Z,100152.50
2022-09-11T19:02:16.255Z,100153.91
2022-09-11T19:04:20.542Z,100157.25
2022-09-11T19:06:25.536Z,100162.13
2022-09-11T19:08:27.883Z,100160.06
2022-09-11T19:10:30.527Z,100166.75
2022-09-11T19:12:33.558Z,100161.44
2022-09-11T19:14:36.283Z,100164.25
2022-09-11T19:16:39.930Z,100160.91
2022-09-11T19:18:43.436Z,100155.03
2022-09-11T19:20:56.763Z,100153.81
2022-09-11T19:23:02.794Z,100158.66
2022-09-11T19:25:07.010Z,100154.91
2022-09-11T19:27:11.788Z,100167.03
2022-09-11T19:29:16.048Z,100160.31
2022-09-11T19:31:21.647Z,100163.63
2022-09-11T19:33:25.525Z,100163.34
2022-09-11T19:35:28.156Z,100167.97
2022-09-11T19:37:31.218Z,100161.72
2022-09-11T19:39:33.765Z,100179.50
2022-09-11T19:41:38.147Z,100164.91
2022-09-11T19:43:42.295Z,100172.84
2022-09-11T19:45:44.852Z,100164.62
2022-09-11T19:47:47.735Z,100172.59
2022-09-11T19:49:51.754Z,100172.59
2022-09-11T19:51:54.749Z,100175.22
2022-09-11T19:54:00.437Z,100173.72
2022-09-11T19:56:03.607Z,100173.28
2022-09-11T19:58:06.009Z,100177.41
2022-09-11T20:00:09.218Z,100178.16
2022-09-11T20:02:12.255Z,100181.09
2022-09-11T20:04:17.623Z,100178.59
2022-09-11T20:06:22.999Z,100168.84
2022-09-11T20:08:25.807Z,100172.34
2022-09-11T20:10:28.411Z,100167.78
2022-09-11T20:12:37.183Z,100159.09
2022-09-11T20:14:42.628Z,100172.03
2022-09-11T20:16:45.292Z,100162.63
2022-09-11T20:18:47.604Z,100163.34
2022-09-11T20:20:50.121Z,100172.84
2022-09-11T20:22:54.537Z,100176.50
2022-09-11T20:24:57.177Z,100160.38
2022-09-11T20:27:00.453Z,100181.34
2022-09-11T20:29:09.625Z,100177.81
2022-09-11T20:31:15.604Z,100174.00
2022-09-11T20:33:18.182Z,100180.63
2022-09-11T20:35:20.482Z,100178.88
2022-09-11T20:37:22.802Z,100185.03
2022-09-11T20:39:25.546Z,100179.09
2022-09-11T20:41:30.154Z,100180.97
2022-09-11T20:43:32.519Z,100176.66
2022-09-11T20:45:35.258Z,100188.16
2022-09-11T20:47:37.534Z,100184.31
2022-09-11T20:49:39.779Z,100189.72
2022-09-11T20:51:42.789Z,100186.19
2022-09-11T20:53:45.819Z,100188.44
2022-09-11T20:55:48.761Z,100185.94
2022-09-11T20:57:51.572Z,100188.84
2022-09-11T20:59:53.846Z,100186.19
2022-09-11T21:01:56.592Z,100197.97
2022-09-11T21:04:00.653Z,100198.22
2022-09-11T21:06:07.801Z,100201.59
2022-09-11T21:08:10.116Z,100197.13
2022-09-11T21:10:12.843Z,100202.81
2022-09-11T21:12:15.068Z,100198.62
2022-09-11T21:14:17.373Z,100198.06
2022-09-11T21:16:20.848Z,100209.97
2022-09-11T21:18:23.104Z,100212.16
2022-09-11T21:20:25.424Z,100196.37
2022-09-11T21:22:27.970Z,100201.19
2022-09-11T21:24:30.398Z,100202.87
2022-09-11T21:26:33.576Z,100194.44
2022-09-11T21:28:36.151Z,100191.34
2022-09-11T21:30:38.885Z,100188.91
2022-09-11T21:32:41.256Z,100193.59
2022-09-11T21:34:43.787Z,100194.31
2022-09-11T21:36:45.995Z,100202.50
2022-09-11T21:38:48.479Z,100199.16
2022-09-11T21:40:54.132Z,100199.66
2022-09-11T21:42:56.458Z,100200.28
2022-09-11T21:44:58.716Z,100202.50
2022-09-11T21:47:01.253Z,100203.28
2022-09-11T21:49:03.710Z,100204.44
2022-09-11T21:51:12.302Z,100205.25
2022-09-11T21:53:15.056Z,100200.78
2022-09-11T21:55:17.395Z,100214.41
2022-09-11T21:57:20.671Z,100201.66
2022-09-11T21:59:23.477Z,100193.81
2022-09-11T22:01:27.176Z,100195.09
